AirNav   Phillips 66 Aviation Fuel
 
 1072 users online  

OI68 Hilty Field Airport
Rittman, Ohio, USA

GOING TO RITTMAN?


FAA INFORMATION EFFECTIVE 14 SEPTEMBER 2017

Location

FAA Identifier: OI68
Lat/Long: 40-56-29.0000N / 081-47-52.0000W
40-56.483333N / 081-47.866667W
40.9413889 / -81.7977778
(estimated)
Elevation: 1000 ft. / 305 m (estimated)
Variation: 07W (1995)
From city: 5 miles SW of RITTMAN, OH
Time zone: UTC -4 (UTC -5 during Standard Time)
Zip code: 44270

Airport Operations

Airport use: Private use. Permission required prior to landing
Activation date: 05/1995
Control tower: no
ARTCC: CLEVELAND CENTER
FSS: CLEVELAND FLIGHT SERVICE STATION
Attendance: UNATNDD
Segmented circle: no

Airport Communications

WX ASOS at BJJ (6 nm SW): 118.075 (330-669-9105)
WX ASOS at AKR (16 nm E): 126.825 (330-724-4237)
WX ASOS at CAK (16 nm E): PHONE 330-966-9545

Nearby radio navigation aids

VOR radial/distance  VOR name  Freq  Var
BSVr310/20.5BRIGGS VOR/DME112.4004W
ACOr254/28.8AKRON VOR/DME114.4004W
DJBr152/29.9DRYER VOR/DME113.6005W
TVTr030/32.6TIVERTON VOR/DME116.5003W
MFDr086/36.2MANSFIELD VORTAC108.8003W

Airport Services

Runway Information

Runway 18/36

Dimensions: 3000 x 80 ft. / 914 x 24 m
Surface: turf
RUNWAY 18  RUNWAY 36
Traffic pattern: leftleft
Displaced threshold: 500 ft.no
Obstructions: 25 ft. pline, lighted, 240 ft. from runwaynone

Airport Ownership and Management from official FAA records

Ownership: Privately-owned
Owner: SAM HILTY
11593 BLOUGH ROAD
RITTMAN, OH 44270
Phone 216-927-2526
Manager: TIM BUTCHER
2037 SUDOMER RD
SUFFIELD, OH 44260
Phone 216-628-4114

Airport Operational Statistics

Aircraft based on the field: 3
Single engine airplanes: 3
    

Instrument Procedures

There are no published instrument procedures at OI68.

Some nearby airports with instrument procedures:

3G3 - Wadsworth Municipal Airport (4 nm NE)
KBJJ - Wayne County Airport (6 nm SW)
1G5 - Medina Municipal Airport (12 nm N)
KAKR - Akron Fulton International Airport (16 nm E)
KCAK - Akron-Canton Regional Airport (16 nm E)
 
Loc | Ops | Rwys | IFR | FBO | Links
Com | Nav | Svcs | Stats | Notes


 
Area around OI68 (Hilty Field Airport)
 
Road maps at: MapQuest Bing Google
 
Aerial photo
WARNING: Photo may not be current or correct
Aerial photo of OI68 (Hilty Field Airport)
Photo by Fred Tarr D29594
Photo taken 12-Sep-2009
looking south.

Do you have a better or more recent aerial photo of Hilty Field Airport that you would like to share? If so, please send us your photo.

 
Sectional chart

 
Airport distance calculator
Flying to Hilty Field Airport? Find the distance to fly.

From to OI68

Sunrise and sunset
Times for 20-Sep-2017
 Local
(UTC-4)
 Zulu
(UTC)
Morning civil twilight06:4610:46
Sunrise07:1411:14
Sunset19:2823:28
Evening civil twilight19:5523:55

Current date and time
Zulu (UTC)  20-Sep-2017 13:02:48
Local (UTC-4)  20-Sep-2017 09:02:48
 
METAR
KBJJ 
6nm SW 
201256Z AUTO 00000KT 5SM BR BKN085 19/19 A3006 RMK AO2 SLP174 T01940189
KCAK 
16nm E 
201251Z 00000KT 6SM BR BKN100 20/18 A3005 RMK AO2 SLP169 T02000178
KAKR 
16nm E 
201254Z AUTO 00000KT 7SM CLR 22/18 A3005 RMK AO2 SLP166 T02170183
TAF
KCAK 
16nm E 
201130Z 2012/2112 VRB03KT P6SM SCT050 BKN120 TEMPO 2012/2013 4SM BR BKN020 FM202000 28005KT P6SM VCTS SCT025CB OVC050 FM202300 VRB04KT P6SM SCT050 FM210600 00000KT 3SM BR SKC
NOTAMs
Click for the latest NOTAMs
NOTAMs are issued by the DoD/FAA and will open in a separate window not controlled by AirNav.

 

 
 

Would you like to see your business listed on this page?

 If your business provides an interesting product or service to pilots, flight crews, aircraft, or users of the Hilty Field Airport, you should consider listing it here.  To start the listing process, click on the button below
 
Add a business
 

Other Pages about Hilty Field Airport

Update a link
 
Copyright © AirNav, LLC. All rights reserved. Privacy Policy  Contact